sensor_id;sensor_type;location;lat;lon;timestamp;P1;durP1;ratioP1;P2;durP2;ratioP2
1471;SDS011;963;42.644;23.336;2023-06-14T00:02:17;8.93;;;7.63;;
1471;SDS011;963;42.644;23.336;2023-06-14T00:04:43;11.80;;;9.70;;
1471;SDS011;963;42.644;23.336;2023-06-14T00:07:08;9.40;;;8.40;;
1471;SDS011;963;42.644;23.336;2023-06-14T00:09:34;8.43;;;7.27;;
1471;SDS011;963;42.644;23.336;2023-06-14T00:12:00;11.73;;;8.00;;
1471;SDS011;963;42.644;23.336;2023-06-14T00:14:25;10.70;;;7.90;;
1471;SDS011;963;42.644;23.336;2023-06-14T00:16:51;8.70;;;7.77;;
1471;SDS011;963;42.644;23.336;2023-06-14T00:19:18;11.90;;;7.90;;
1471;SDS011;963;42.644;23.336;2023-06-14T00:21:44;9.23;;;7.20;;
1471;SDS011;963;42.644;23.336;2023-06-14T00:24:10;8.90;;;8.00;;
1471;SDS011;963;42.644;23.336;2023-06-14T00:26:36;8.30;;;6.77;;
1471;SDS011;963;42.644;23.336;2023-06-14T00:29:01;10.60;;;7.13;;
1471;SDS011;963;42.644;23.336;2023-06-14T00:31:27;7.80;;;6.70;;
1471;SDS011;963;42.644;23.336;2023-06-14T00:33:52;7.67;;;6.60;;
1471;SDS011;963;42.644;23.336;2023-06-14T00:36:18;8.80;;;6.73;;
1471;SDS011;963;42.644;23.336;2023-06-14T00:38:43;7.80;;;6.37;;
1471;SDS011;963;42.644;23.336;2023-06-14T00:41:08;6.60;;;5.87;;
1471;SDS011;963;42.644;23.336;2023-06-14T00:43:34;8.07;;;5.80;;
1471;SDS011;963;42.644;23.336;2023-06-14T00:46:00;8.20;;;6.20;;
1471;SDS011;963;42.644;23.336;2023-06-14T00:48:25;8.40;;;5.83;;
1471;SDS011;963;42.644;23.336;2023-06-14T00:50:52;9.00;;;6.60;;
1471;SDS011;963;42.644;23.336;2023-06-14T00:53:17;9.13;;;6.77;;
1471;SDS011;963;42.644;23.336;2023-06-14T00:55:45;8.03;;;6.60;;
1471;SDS011;963;42.644;23.336;2023-06-14T00:58:11;5.87;;;4.93;;
1471;SDS011;963;42.644;23.336;2023-06-14T01:00:37;9.00;;;6.50;;
1471;SDS011;963;42.644;23.336;2023-06-14T01:03:03;7.80;;;6.70;;
1471;SDS011;963;42.644;23.336;2023-06-14T01:05:28;8.53;;;6.90;;
1471;SDS011;963;42.644;23.336;2023-06-14T01:13:47;8.30;;;6.30;;
1471;SDS011;963;42.644;23.336;2023-06-14T01:16:15;7.17;;;6.33;;
1471;SDS011;963;42.644;23.336;2023-06-14T01:18:42;8.30;;;6.20;;
1471;SDS011;963;42.644;23.336;2023-06-14T01:21:22;7.30;;;6.03;;
1471;SDS011;963;42.644;23.336;2023-06-14T01:23:49;8.30;;;6.67;;
1471;SDS011;963;42.644;23.336;2023-06-14T01:26:18;11.83;;;6.37;;
1471;SDS011;963;42.644;23.336;2023-06-14T01:28:45;9.30;;;6.60;;
1471;SDS011;963;42.644;23.336;2023-06-14T01:31:15;8.03;;;6.40;;
1471;SDS011;963;42.644;23.336;2023-06-14T01:33:46;8.30;;;6.70;;
1471;SDS011;963;42.644;23.336;2023-06-14T01:36:14;9.00;;;6.70;;
1471;SDS011;963;42.644;23.336;2023-06-14T01:38:41;6.90;;;6.10;;
1471;SDS011;963;42.644;23.336;2023-06-14T01:41:08;8.80;;;6.10;;
1471;SDS011;963;42.644;23.336;2023-06-14T01:43:35;7.47;;;6.50;;
1471;SDS011;963;42.644;23.336;2023-06-14T01:46:01;8.70;;;6.90;;
1471;SDS011;963;42.644;23.336;2023-06-14T01:48:28;9.60;;;7.90;;
1471;SDS011;963;42.644;23.336;2023-06-14T01:50:53;9.23;;;6.80;;
1471;SDS011;963;42.644;23.336;2023-06-14T01:53:19;8.30;;;7.20;;
1471;SDS011;963;42.644;23.336;2023-06-14T01:55:45;7.83;;;6.47;;
1471;SDS011;963;42.644;23.336;2023-06-14T01:58:13;7.07;;;6.37;;
1471;SDS011;963;42.644;23.336;2023-06-14T02:00:41;6.80;;;5.63;;
1471;SDS011;963;42.644;23.336;2023-06-14T02:03:08;10.33;;;5.53;;
1471;SDS011;963;42.644;23.336;2023-06-14T02:05:33;6.57;;;5.90;;
1471;SDS011;963;42.644;23.336;2023-06-14T02:07:59;8.33;;;4.93;;
1471;SDS011;963;42.644;23.336;2023-06-14T02:10:25;7.40;;;5.37;;
1471;SDS011;963;42.644;23.336;2023-06-14T02:12:51;8.17;;;5.37;;
1471;SDS011;963;42.644;23.336;2023-06-14T02:15:16;6.00;;;5.40;;
1471;SDS011;963;42.644;23.336;2023-06-14T02:17:43;6.67;;;4.97;;
1471;SDS011;963;42.644;23.336;2023-06-14T02:20:09;5.97;;;5.00;;
1471;SDS011;963;42.644;23.336;2023-06-14T02:22:35;6.57;;;5.87;;
1471;SDS011;963;42.644;23.336;2023-06-14T02:25:01;5.83;;;5.13;;
1471;SDS011;963;42.644;23.336;2023-06-14T02:27:26;5.60;;;5.00;;
1471;SDS011;963;42.644;23.336;2023-06-14T02:29:51;6.60;;;5.50;;
1471;SDS011;963;42.644;23.336;2023-06-14T02:32:17;6.40;;;5.40;;
1471;SDS011;963;42.644;23.336;2023-06-14T02:34:42;7.23;;;5.23;;
1471;SDS011;963;42.644;23.336;2023-06-14T02:37:08;11.20;;;4.87;;
1471;SDS011;963;42.644;23.336;2023-06-14T02:39:33;6.90;;;4.90;;
1471;SDS011;963;42.644;23.336;2023-06-14T02:41:59;7.10;;;4.77;;
1471;SDS011;963;42.644;23.336;2023-06-14T02:44:25;6.13;;;4.70;;
1471;SDS011;963;42.644;23.336;2023-06-14T02:46:53;6.20;;;5.03;;
1471;SDS011;963;42.644;23.336;2023-06-14T02:49:21;4.93;;;4.30;;
1471;SDS011;963;42.644;23.336;2023-06-14T02:51:47;5.13;;;4.50;;
1471;SDS011;963;42.644;23.336;2023-06-14T02:54:13;7.20;;;5.00;;
1471;SDS011;963;42.644;23.336;2023-06-14T02:56:38;8.70;;;6.03;;
1471;SDS011;963;42.644;23.336;2023-06-14T02:59:04;8.57;;;5.47;;
1471;SDS011;963;42.644;23.336;2023-06-14T03:01:29;6.90;;;4.70;;
1471;SDS011;963;42.644;23.336;2023-06-14T03:04:02;6.20;;;5.07;;
1471;SDS011;963;42.644;23.336;2023-06-14T03:06:31;10.53;;;5.40;;
1471;SDS011;963;42.644;23.336;2023-06-14T03:08:57;6.57;;;5.17;;
1471;SDS011;963;42.644;23.336;2023-06-14T03:11:29;5.10;;;4.60;;
1471;SDS011;963;42.644;23.336;2023-06-14T03:13:55;7.30;;;5.13;;
1471;SDS011;963;42.644;23.336;2023-06-14T03:16:22;7.13;;;4.47;;
1471;SDS011;963;42.644;23.336;2023-06-14T03:18:52;7.17;;;5.40;;
1471;SDS011;963;42.644;23.336;2023-06-14T03:21:20;8.43;;;4.70;;
1471;SDS011;963;42.644;23.336;2023-06-14T03:23:46;10.83;;;5.20;;
1471;SDS011;963;42.644;23.336;2023-06-14T03:26:13;7.97;;;5.30;;
1471;SDS011;963;42.644;23.336;2023-06-14T03:28:46;7.50;;;5.40;;
1471;SDS011;963;42.644;23.336;2023-06-14T03:31:12;7.13;;;5.13;;
1471;SDS011;963;42.644;23.336;2023-06-14T03:33:38;6.07;;;4.67;;
1471;SDS011;963;42.644;23.336;2023-06-14T03:36:04;7.13;;;5.00;;
1471;SDS011;963;42.644;23.336;2023-06-14T03:38:30;7.13;;;5.63;;
1471;SDS011;963;42.644;23.336;2023-06-14T03:40:55;7.13;;;5.77;;
1471;SDS011;963;42.644;23.336;2023-06-14T03:43:21;8.17;;;6.30;;
1471;SDS011;963;42.644;23.336;2023-06-14T03:45:46;6.03;;;5.40;;
1471;SDS011;963;42.644;23.336;2023-06-14T03:48:11;7.00;;;5.83;;
1471;SDS011;963;42.644;23.336;2023-06-14T03:50:37;6.10;;;5.50;;
1471;SDS011;963;42.644;23.336;2023-06-14T03:53:03;8.83;;;6.97;;
1471;SDS011;963;42.644;23.336;2023-06-14T03:55:29;5.87;;;5.27;;
1471;SDS011;963;42.644;23.336;2023-06-14T03:57:56;7.63;;;6.00;;
1471;SDS011;963;42.644;23.336;2023-06-14T04:00:22;6.60;;;5.57;;
1471;SDS011;963;42.644;23.336;2023-06-14T04:02:48;7.73;;;5.53;;
1471;SDS011;963;42.644;23.336;2023-06-14T04:05:13;7.67;;;6.87;;
1471;SDS011;963;42.644;23.336;2023-06-14T04:07:40;10.80;;;5.90;;
1471;SDS011;963;42.644;23.336;2023-06-14T04:10:10;6.20;;;5.57;;
1471;SDS011;963;42.644;23.336;2023-06-14T04:12:36;9.33;;;6.63;;
1471;SDS011;963;42.644;23.336;2023-06-14T04:15:01;10.83;;;6.30;;
1471;SDS011;963;42.644;23.336;2023-06-14T04:17:27;6.57;;;5.80;;
1471;SDS011;963;42.644;23.336;2023-06-14T04:19:53;7.60;;;6.53;;
1471;SDS011;963;42.644;23.336;2023-06-14T04:22:19;9.47;;;5.67;;
1471;SDS011;963;42.644;23.336;2023-06-14T04:24:44;7.37;;;6.60;;
1471;SDS011;963;42.644;23.336;2023-06-14T04:27:10;7.10;;;6.40;;
1471;SDS011;963;42.644;23.336;2023-06-14T04:29:35;5.80;;;5.20;;
1471;SDS011;963;42.644;23.336;2023-06-14T04:32:01;5.50;;;4.80;;
1471;SDS011;963;42.644;23.336;2023-06-14T04:34:26;5.93;;;5.27;;
1471;SDS011;963;42.644;23.336;2023-06-14T04:36:58;7.53;;;5.90;;
1471;SDS011;963;42.644;23.336;2023-06-14T04:39:26;7.17;;;5.87;;
1471;SDS011;963;42.644;23.336;2023-06-14T04:41:52;6.77;;;5.50;;
1471;SDS011;963;42.644;23.336;2023-06-14T04:44:22;7.07;;;5.63;;
1471;SDS011;963;42.644;23.336;2023-06-14T04:46:55;8.50;;;6.40;;
1471;SDS011;963;42.644;23.336;2023-06-14T04:49:21;8.13;;;6.87;;
1471;SDS011;963;42.644;23.336;2023-06-14T04:51:48;7.73;;;6.47;;
1471;SDS011;963;42.644;23.336;2023-06-14T04:54:22;9.00;;;7.00;;
1471;SDS011;963;42.644;23.336;2023-06-14T04:56:49;9.80;;;6.73;;
1471;SDS011;963;42.644;23.336;2023-06-14T04:59:15;7.00;;;6.30;;
1471;SDS011;963;42.644;23.336;2023-06-14T05:01:42;9.17;;;7.30;;
1471;SDS011;963;42.644;23.336;2023-06-14T05:04:12;7.70;;;6.53;;
1471;SDS011;963;42.644;23.336;2023-06-14T05:06:38;10.57;;;6.83;;
1471;SDS011;963;42.644;23.336;2023-06-14T05:09:03;10.33;;;7.30;;
1471;SDS011;963;42.644;23.336;2023-06-14T05:11:29;11.37;;;10.13;;
1471;SDS011;963;42.644;23.336;2023-06-14T05:13:54;14.47;;;10.27;;
1471;SDS011;963;42.644;23.336;2023-06-14T05:16:20;10.30;;;8.90;;
1471;SDS011;963;42.644;23.336;2023-06-14T05:18:48;18.30;;;10.27;;
1471;SDS011;963;42.644;23.336;2023-06-14T05:21:14;16.00;;;9.90;;
1471;SDS011;963;42.644;23.336;2023-06-14T05:23:42;12.80;;;9.80;;
1471;SDS011;963;42.644;23.336;2023-06-14T05:26:09;15.10;;;10.37;;
1471;SDS011;963;42.644;23.336;2023-06-14T05:28:35;12.63;;;10.70;;
1471;SDS011;963;42.644;23.336;2023-06-14T05:31:01;15.00;;;9.90;;
1471;SDS011;963;42.644;23.336;2023-06-14T05:33:26;13.30;;;9.50;;
1471;SDS011;963;42.644;23.336;2023-06-14T05:35:51;16.23;;;10.80;;
1471;SDS011;963;42.644;23.336;2023-06-14T05:38:17;11.87;;;10.40;;
1471;SDS011;963;42.644;23.336;2023-06-14T05:40:42;12.43;;;11.13;;
1471;SDS011;963;42.644;23.336;2023-06-14T05:43:07;13.10;;;10.57;;
1471;SDS011;963;42.644;23.336;2023-06-14T05:45:33;14.53;;;11.40;;
1471;SDS011;963;42.644;23.336;2023-06-14T05:47:58;17.33;;;11.17;;
1471;SDS011;963;42.644;23.336;2023-06-14T05:50:24;13.60;;;10.80;;
1471;SDS011;963;42.644;23.336;2023-06-14T05:52:49;14.43;;;12.63;;
1471;SDS011;963;42.644;23.336;2023-06-14T05:55:16;20.03;;;11.90;;
1471;SDS011;963;42.644;23.336;2023-06-14T05:57:41;16.07;;;12.17;;
1471;SDS011;963;42.644;23.336;2023-06-14T06:00:07;15.53;;;10.93;;
1471;SDS011;963;42.644;23.336;2023-06-14T06:02:36;13.63;;;11.10;;
1471;SDS011;963;42.644;23.336;2023-06-14T06:05:02;14.63;;;12.70;;
1471;SDS011;963;42.644;23.336;2023-06-14T06:07:27;21.67;;;12.07;;
1471;SDS011;963;42.644;23.336;2023-06-14T06:09:53;13.90;;;11.00;;
1471;SDS011;963;42.644;23.336;2023-06-14T06:12:18;15.40;;;10.10;;
1471;SDS011;963;42.644;23.336;2023-06-14T06:14:44;12.40;;;10.97;;
1471;SDS011;963;42.644;23.336;2023-06-14T06:17:09;12.83;;;10.67;;
1471;SDS011;963;42.644;23.336;2023-06-14T06:19:35;14.23;;;10.47;;
1471;SDS011;963;42.644;23.336;2023-06-14T06:22:00;17.20;;;11.30;;
1471;SDS011;963;42.644;23.336;2023-06-14T06:24:25;16.50;;;12.63;;
1471;SDS011;963;42.644;23.336;2023-06-14T06:26:51;14.27;;;11.40;;
1471;SDS011;963;42.644;23.336;2023-06-14T06:29:16;13.33;;;11.13;;
1471;SDS011;963;42.644;23.336;2023-06-14T06:31:41;11.40;;;10.20;;
1471;SDS011;963;42.644;23.336;2023-06-14T06:34:07;15.00;;;11.37;;
1471;SDS011;963;42.644;23.336;2023-06-14T06:36:32;12.10;;;9.53;;
1471;SDS011;963;42.644;23.336;2023-06-14T06:38:58;12.60;;;9.70;;
1471;SDS011;963;42.644;23.336;2023-06-14T06:41:23;13.07;;;9.40;;
1471;SDS011;963;42.644;23.336;2023-06-14T06:43:48;15.97;;;12.27;;
1471;SDS011;963;42.644;23.336;2023-06-14T06:46:14;13.53;;;9.90;;
1471;SDS011;963;42.644;23.336;2023-06-14T06:48:39;15.70;;;10.63;;
1471;SDS011;963;42.644;23.336;2023-06-14T06:51:05;15.30;;;10.90;;
1471;SDS011;963;42.644;23.336;2023-06-14T06:53:30;12.00;;;10.30;;
1471;SDS011;963;42.644;23.336;2023-06-14T06:55:56;16.73;;;11.40;;
1471;SDS011;963;42.644;23.336;2023-06-14T06:58:21;11.80;;;10.13;;
1471;SDS011;963;42.644;23.336;2023-06-14T07:00:47;13.93;;;11.00;;
1471;SDS011;963;42.644;23.336;2023-06-14T07:03:12;19.47;;;12.10;;
1471;SDS011;963;42.644;23.336;2023-06-14T07:05:38;12.57;;;10.90;;
1471;SDS011;963;42.644;23.336;2023-06-14T07:08:03;14.40;;;11.13;;
1471;SDS011;963;42.644;23.336;2023-06-14T07:10:29;16.20;;;11.40;;
1471;SDS011;963;42.644;23.336;2023-06-14T07:12:54;14.90;;;11.53;;
1471;SDS011;963;42.644;23.336;2023-06-14T07:15:20;18.43;;;12.33;;
1471;SDS011;963;42.644;23.336;2023-06-14T07:17:45;15.10;;;12.13;;
1471;SDS011;963;42.644;23.336;2023-06-14T07:20:11;14.60;;;11.30;;
1471;SDS011;963;42.644;23.336;2023-06-14T07:22:41;13.10;;;11.57;;
1471;SDS011;963;42.644;23.336;2023-06-14T07:25:08;13.33;;;11.47;;
1471;SDS011;963;42.644;23.336;2023-06-14T07:27:34;12.80;;;11.30;;
1471;SDS011;963;42.644;23.336;2023-06-14T07:30:00;16.10;;;11.90;;
1471;SDS011;963;42.644;23.336;2023-06-14T07:32:25;16.10;;;11.90;;
1471;SDS011;963;42.644;23.336;2023-06-14T07:34:51;18.43;;;13.33;;
1471;SDS011;963;42.644;23.336;2023-06-14T07:37:16;13.80;;;11.67;;
1471;SDS011;963;42.644;23.336;2023-06-14T07:39:42;17.80;;;12.00;;
1471;SDS011;963;42.644;23.336;2023-06-14T07:42:07;14.33;;;11.80;;
1471;SDS011;963;42.644;23.336;2023-06-14T07:44:32;15.03;;;11.03;;
1471;SDS011;963;42.644;23.336;2023-06-14T07:46:58;16.57;;;12.30;;
1471;SDS011;963;42.644;23.336;2023-06-14T07:49:24;17.50;;;11.90;;
1471;SDS011;963;42.644;23.336;2023-06-14T07:51:50;12.60;;;10.83;;
1471;SDS011;963;42.644;23.336;2023-06-14T07:54:16;16.33;;;11.87;;
1471;SDS011;963;42.644;23.336;2023-06-14T07:56:41;14.70;;;11.67;;
1471;SDS011;963;42.644;23.336;2023-06-14T07:59:07;20.20;;;13.00;;
1471;SDS011;963;42.644;23.336;2023-06-14T08:01:32;13.37;;;11.60;;
1471;SDS011;963;42.644;23.336;2023-06-14T08:03:58;14.80;;;11.50;;
1471;SDS011;963;42.644;23.336;2023-06-14T08:06:23;13.17;;;11.60;;
1471;SDS011;963;42.644;23.336;2023-06-14T08:08:50;14.90;;;10.90;;
1471;SDS011;963;42.644;23.336;2023-06-14T08:11:15;17.03;;;12.60;;
1471;SDS011;963;42.644;23.336;2023-06-14T08:13:41;17.40;;;12.73;;
1471;SDS011;963;42.644;23.336;2023-06-14T08:16:06;28.70;;;22.90;;
1471;SDS011;963;42.644;23.336;2023-06-14T08:18:31;48.67;;;35.40;;
1471;SDS011;963;42.644;23.336;2023-06-14T08:20:57;17.40;;;13.97;;
1471;SDS011;963;42.644;23.336;2023-06-14T08:23:22;12.10;;;10.80;;
1471;SDS011;963;42.644;23.336;2023-06-14T08:25:48;13.20;;;11.30;;
1471;SDS011;963;42.644;23.336;2023-06-14T08:28:14;14.30;;;10.97;;
1471;SDS011;963;42.644;23.336;2023-06-14T08:30:39;13.03;;;10.63;;
1471;SDS011;963;42.644;23.336;2023-06-14T08:33:04;15.37;;;11.80;;
1471;SDS011;963;42.644;23.336;2023-06-14T08:35:30;16.07;;;12.40;;
1471;SDS011;963;42.644;23.336;2023-06-14T08:37:55;18.87;;;11.40;;
1471;SDS011;963;42.644;23.336;2023-06-14T08:40:22;12.40;;;11.10;;
1471;SDS011;963;42.644;23.336;2023-06-14T08:42:52;14.03;;;11.93;;
1471;SDS011;963;42.644;23.336;2023-06-14T08:45:23;11.33;;;10.17;;
1471;SDS011;963;42.644;23.336;2023-06-14T08:47:50;12.60;;;10.33;;
1471;SDS011;963;42.644;23.336;2023-06-14T08:50:20;12.97;;;10.67;;
1471;SDS011;963;42.644;23.336;2023-06-14T08:52:48;19.80;;;12.00;;
1471;SDS011;963;42.644;23.336;2023-06-14T08:55:19;11.93;;;9.93;;
1471;SDS011;963;42.644;23.336;2023-06-14T08:57:46;14.90;;;12.33;;
1471;SDS011;963;42.644;23.336;2023-06-14T09:00:13;13.90;;;11.43;;
1471;SDS011;963;42.644;23.336;2023-06-14T09:02:39;13.10;;;11.10;;
1471;SDS011;963;42.644;23.336;2023-06-14T09:05:12;15.13;;;10.87;;
1471;SDS011;963;42.644;23.336;2023-06-14T09:07:41;16.93;;;11.57;;
1471;SDS011;963;42.644;23.336;2023-06-14T09:10:13;60.70;;;45.73;;
1471;SDS011;963;42.644;23.336;2023-06-14T09:12:40;20.53;;;15.70;;
1471;SDS011;963;42.644;23.336;2023-06-14T09:15:06;23.80;;;19.67;;
1471;SDS011;963;42.644;23.336;2023-06-14T09:17:34;14.97;;;12.73;;
1471;SDS011;963;42.644;23.336;2023-06-14T09:20:02;18.10;;;12.70;;
1471;SDS011;963;42.644;23.336;2023-06-14T09:22:31;15.70;;;12.37;;
1471;SDS011;963;42.644;23.336;2023-06-14T09:24:58;16.70;;;13.50;;
1471;SDS011;963;42.644;23.336;2023-06-14T09:27:25;16.60;;;11.83;;
1471;SDS011;963;42.644;23.336;2023-06-14T09:29:51;15.67;;;12.67;;
1471;SDS011;963;42.644;23.336;2023-06-14T09:32:16;14.63;;;12.50;;
1471;SDS011;963;42.644;23.336;2023-06-14T09:34:42;15.07;;;12.40;;
1471;SDS011;963;42.644;23.336;2023-06-14T09:37:07;13.83;;;11.53;;
1471;SDS011;963;42.644;23.336;2023-06-14T09:39:33;14.40;;;11.90;;
1471;SDS011;963;42.644;23.336;2023-06-14T09:41:59;14.70;;;12.73;;
1471;SDS011;963;42.644;23.336;2023-06-14T09:44:25;15.40;;;12.50;;
1471;SDS011;963;42.644;23.336;2023-06-14T09:46:53;13.80;;;11.50;;
1471;SDS011;963;42.644;23.336;2023-06-14T09:49:21;13.63;;;11.20;;
1471;SDS011;963;42.644;23.336;2023-06-14T09:51:47;13.47;;;12.13;;
1471;SDS011;963;42.644;23.336;2023-06-14T09:54:16;13.90;;;11.00;;
1471;SDS011;963;42.644;23.336;2023-06-14T09:56:47;15.07;;;11.73;;
1471;SDS011;963;42.644;23.336;2023-06-14T09:59:14;15.30;;;11.80;;
1471;SDS011;963;42.644;23.336;2023-06-14T10:01:45;11.97;;;10.77;;
1471;SDS011;963;42.644;23.336;2023-06-14T10:04:12;29.83;;;23.07;;
1471;SDS011;963;42.644;23.336;2023-06-14T10:06:40;14.97;;;12.80;;
1471;SDS011;963;42.644;23.336;2023-06-14T10:09:09;13.00;;;10.90;;
1471;SDS011;963;42.644;23.336;2023-06-14T10:11:35;11.40;;;10.30;;
1471;SDS011;963;42.644;23.336;2023-06-14T10:14:02;12.20;;;10.67;;
1471;SDS011;963;42.644;23.336;2023-06-14T10:19:32;14.70;;;11.50;;
1471;SDS011;963;42.644;23.336;2023-06-14T10:22:18;15.47;;;11.20;;
1471;SDS011;963;42.644;23.336;2023-06-14T10:24:50;13.50;;;11.00;;
1471;SDS011;963;42.644;23.336;2023-06-14T10:27:15;13.90;;;11.07;;
1471;SDS011;963;42.644;23.336;2023-06-14T10:32:22;11.77;;;10.23;;
1471;SDS011;963;42.644;23.336;2023-06-14T10:34:56;11.47;;;10.13;;
1471;SDS011;963;42.644;23.336;2023-06-14T10:37:22;12.30;;;11.00;;
1471;SDS011;963;42.644;23.336;2023-06-14T10:39:51;11.93;;;10.73;;
1471;SDS011;963;42.644;23.336;2023-06-14T10:42:18;14.40;;;10.10;;
1471;SDS011;963;42.644;23.336;2023-06-14T10:44:45;14.70;;;9.97;;
1471;SDS011;963;42.644;23.336;2023-06-14T10:47:21;17.17;;;9.40;;
1471;SDS011;963;42.644;23.336;2023-06-14T10:49:55;12.20;;;10.23;;
1471;SDS011;963;42.644;23.336;2023-06-14T10:52:27;15.57;;;9.23;;
1471;SDS011;963;42.644;23.336;2023-06-14T10:58:00;12.80;;;9.87;;
1471;SDS011;963;42.644;23.336;2023-06-14T11:00:28;12.93;;;10.40;;
1471;SDS011;963;42.644;23.336;2023-06-14T11:05:58;15.00;;;10.23;;
1471;SDS011;963;42.644;23.336;2023-06-14T11:11:32;10.83;;;9.73;;
1471;SDS011;963;42.644;23.336;2023-06-14T11:13:59;14.47;;;9.80;;
1471;SDS011;963;42.644;23.336;2023-06-14T11:16:25;10.03;;;8.90;;
1471;SDS011;963;42.644;23.336;2023-06-14T11:18:52;8.80;;;7.90;;
1471;SDS011;963;42.644;23.336;2023-06-14T11:21:18;11.10;;;9.20;;
1471;SDS011;963;42.644;23.336;2023-06-14T11:23:52;15.73;;;10.30;;
1471;SDS011;963;42.644;23.336;2023-06-14T11:28:54;11.23;;;8.93;;
1471;SDS011;963;42.644;23.336;2023-06-14T11:31:22;9.90;;;8.90;;
1471;SDS011;963;42.644;23.336;2023-06-14T11:33:50;9.47;;;8.57;;
1471;SDS011;963;42.644;23.336;2023-06-14T11:36:18;10.47;;;8.97;;
1471;SDS011;963;42.644;23.336;2023-06-14T11:38:43;13.03;;;9.07;;
1471;SDS011;963;42.644;23.336;2023-06-14T11:41:09;9.93;;;8.40;;
1471;SDS011;963;42.644;23.336;2023-06-14T11:43:34;8.87;;;7.97;;
1471;SDS011;963;42.644;23.336;2023-06-14T11:46:00;14.23;;;7.77;;
1471;SDS011;963;42.644;23.336;2023-06-14T11:48:40;8.90;;;7.73;;
1471;SDS011;963;42.644;23.336;2023-06-14T11:51:07;10.63;;;8.57;;
1471;SDS011;963;42.644;23.336;2023-06-14T11:53:32;8.17;;;6.50;;
1471;SDS011;963;42.644;23.336;2023-06-14T11:55:58;8.43;;;7.53;;
1471;SDS011;963;42.644;23.336;2023-06-14T11:58:25;8.50;;;7.70;;
1471;SDS011;963;42.644;23.336;2023-06-14T12:00:51;7.80;;;7.00;;
1471;SDS011;963;42.644;23.336;2023-06-14T12:03:22;8.13;;;7.13;;
1471;SDS011;963;42.644;23.336;2023-06-14T12:05:48;8.50;;;7.47;;
1471;SDS011;963;42.644;23.336;2023-06-14T12:08:13;8.70;;;6.80;;
1471;SDS011;963;42.644;23.336;2023-06-14T12:10:42;7.90;;;7.10;;
1471;SDS011;963;42.644;23.336;2023-06-14T12:13:08;7.53;;;6.57;;
1471;SDS011;963;42.644;23.336;2023-06-14T12:15:34;8.83;;;6.70;;
1471;SDS011;963;42.644;23.336;2023-06-14T12:18:00;8.50;;;7.13;;
1471;SDS011;963;42.644;23.336;2023-06-14T12:20:29;7.80;;;6.83;;
1471;SDS011;963;42.644;23.336;2023-06-14T12:22:56;8.33;;;7.53;;
1471;SDS011;963;42.644;23.336;2023-06-14T12:25:27;9.30;;;6.73;;
1471;SDS011;963;42.644;23.336;2023-06-14T12:27:59;8.07;;;6.60;;
1471;SDS011;963;42.644;23.336;2023-06-14T12:30:32;8.53;;;7.00;;
1471;SDS011;963;42.644;23.336;2023-06-14T12:32:58;7.60;;;6.90;;
1471;SDS011;963;42.644;23.336;2023-06-14T12:35:25;7.93;;;6.03;;
1471;SDS011;963;42.644;23.336;2023-06-14T12:37:51;7.83;;;7.03;;
1471;SDS011;963;42.644;23.336;2023-06-14T12:40:16;9.33;;;6.53;;
1471;SDS011;963;42.644;23.336;2023-06-14T12:42:42;8.90;;;7.57;;
1471;SDS011;963;42.644;23.336;2023-06-14T12:45:08;7.30;;;6.60;;
1471;SDS011;963;42.644;23.336;2023-06-14T12:47:33;9.03;;;7.07;;
1471;SDS011;963;42.644;23.336;2023-06-14T12:49:59;6.80;;;6.13;;
1471;SDS011;963;42.644;23.336;2023-06-14T12:52:24;8.90;;;7.80;;
1471;SDS011;963;42.644;23.336;2023-06-14T12:54:50;9.60;;;6.97;;
1471;SDS011;963;42.644;23.336;2023-06-14T12:57:15;8.60;;;7.27;;
1471;SDS011;963;42.644;23.336;2023-06-14T12:59:41;8.20;;;6.80;;
1471;SDS011;963;42.644;23.336;2023-06-14T13:02:24;9.03;;;7.33;;
1471;SDS011;963;42.644;23.336;2023-06-14T13:04:50;10.80;;;7.20;;
1471;SDS011;963;42.644;23.336;2023-06-14T13:07:16;11.60;;;7.23;;
1471;SDS011;963;42.644;23.336;2023-06-14T13:09:42;7.73;;;6.73;;
1471;SDS011;963;42.644;23.336;2023-06-14T13:12:09;8.67;;;6.80;;
1471;SDS011;963;42.644;23.336;2023-06-14T13:14:39;11.43;;;7.00;;
1471;SDS011;963;42.644;23.336;2023-06-14T13:17:06;7.70;;;6.40;;
1471;SDS011;963;42.644;23.336;2023-06-14T13:19:32;8.30;;;7.30;;
1471;SDS011;963;42.644;23.336;2023-06-14T13:21:58;9.30;;;6.47;;
1471;SDS011;963;42.644;23.336;2023-06-14T13:24:23;6.40;;;5.67;;
1471;SDS011;963;42.644;23.336;2023-06-14T13:26:49;9.90;;;5.40;;
1471;SDS011;963;42.644;23.336;2023-06-14T13:29:14;10.70;;;6.20;;
1471;SDS011;963;42.644;23.336;2023-06-14T13:31:39;6.67;;;5.43;;
1471;SDS011;963;42.644;23.336;2023-06-14T13:34:05;9.10;;;6.80;;
1471;SDS011;963;42.644;23.336;2023-06-14T13:36:31;7.00;;;6.30;;
1471;SDS011;963;42.644;23.336;2023-06-14T13:38:56;9.40;;;6.00;;
1471;SDS011;963;42.644;23.336;2023-06-14T13:41:23;10.47;;;7.07;;
1471;SDS011;963;42.644;23.336;2023-06-14T13:43:56;8.07;;;7.17;;
1471;SDS011;963;42.644;23.336;2023-06-14T13:46:21;15.53;;;7.93;;
1471;SDS011;963;42.644;23.336;2023-06-14T13:48:47;10.23;;;7.00;;
1471;SDS011;963;42.644;23.336;2023-06-14T13:51:12;8.27;;;7.10;;
1471;SDS011;963;42.644;23.336;2023-06-14T13:53:38;9.70;;;7.50;;
1471;SDS011;963;42.644;23.336;2023-06-14T13:56:04;9.70;;;7.77;;
1471;SDS011;963;42.644;23.336;2023-06-14T13:58:29;9.40;;;6.90;;
1471;SDS011;963;42.644;23.336;2023-06-14T14:00:55;9.20;;;7.00;;
1471;SDS011;963;42.644;23.336;2023-06-14T14:03:20;7.17;;;6.47;;
1471;SDS011;963;42.644;23.336;2023-06-14T14:05:46;8.40;;;6.73;;
1471;SDS011;963;42.644;23.336;2023-06-14T14:08:11;8.90;;;6.93;;
1471;SDS011;963;42.644;23.336;2023-06-14T14:10:37;7.50;;;6.67;;
1471;SDS011;963;42.644;23.336;2023-06-14T14:13:03;7.00;;;5.87;;
1471;SDS011;963;42.644;23.336;2023-06-14T14:15:28;10.17;;;5.83;;
1471;SDS011;963;42.644;23.336;2023-06-14T14:17:54;7.63;;;5.37;;
1471;SDS011;963;42.644;23.336;2023-06-14T14:20:22;5.97;;;4.27;;
1471;SDS011;963;42.644;23.336;2023-06-14T14:22:48;5.07;;;4.57;;
1471;SDS011;963;42.644;23.336;2023-06-14T14:25:13;5.20;;;4.67;;
1471;SDS011;963;42.644;23.336;2023-06-14T14:27:39;5.93;;;5.33;;
1471;SDS011;963;42.644;23.336;2023-06-14T14:30:05;6.53;;;5.40;;
1471;SDS011;963;42.644;23.336;2023-06-14T14:32:31;7.00;;;5.43;;
1471;SDS011;963;42.644;23.336;2023-06-14T14:34:56;8.03;;;5.70;;
1471;SDS011;963;42.644;23.336;2023-06-14T14:37:21;7.93;;;5.60;;
1471;SDS011;963;42.644;23.336;2023-06-14T14:39:47;5.97;;;4.90;;
1471;SDS011;963;42.644;23.336;2023-06-14T14:42:12;6.40;;;5.57;;
1471;SDS011;963;42.644;23.336;2023-06-14T14:44:38;8.93;;;6.20;;
1471;SDS011;963;42.644;23.336;2023-06-14T14:47:04;9.20;;;6.90;;
1471;SDS011;963;42.644;23.336;2023-06-14T14:49:30;9.77;;;6.80;;
1471;SDS011;963;42.644;23.336;2023-06-14T14:51:56;8.83;;;6.77;;
1471;SDS011;963;42.644;23.336;2023-06-14T14:54:22;10.40;;;7.50;;
1471;SDS011;963;42.644;23.336;2023-06-14T14:56:48;8.87;;;7.90;;
1471;SDS011;963;42.644;23.336;2023-06-14T14:59:14;10.70;;;8.00;;
1471;SDS011;963;42.644;23.336;2023-06-14T15:01:39;11.97;;;9.30;;
1471;SDS011;963;42.644;23.336;2023-06-14T15:04:05;12.27;;;9.00;;
1471;SDS011;963;42.644;23.336;2023-06-14T15:06:30;8.87;;;7.40;;
1471;SDS011;963;42.644;23.336;2023-06-14T15:08:56;9.13;;;8.20;;
1471;SDS011;963;42.644;23.336;2023-06-14T15:11:21;10.57;;;8.00;;
1471;SDS011;963;42.644;23.336;2023-06-14T15:13:47;9.77;;;8.37;;
1471;SDS011;963;42.644;23.336;2023-06-14T15:16:12;13.40;;;8.30;;
1471;SDS011;963;42.644;23.336;2023-06-14T15:18:38;12.10;;;8.63;;
1471;SDS011;963;42.644;23.336;2023-06-14T15:21:03;10.43;;;9.33;;
1471;SDS011;963;42.644;23.336;2023-06-14T15:23:28;10.43;;;8.60;;